< < Back
Terminal Aerodrome Forecast


Current Version              Previous Versions:   1  2  3  4  5  6  7  8  9  

Terminal Aerodrome Forecast

497
FTUS42 KJAX 271833 AAA
TAFGNV
TAF AMD
KGNV 271833Z 2719/2818 32007KT P6SM SCT015 BKN040
     FM280000 VRB04KT P6SM VCSH BKN025
     FM280600 06006KT 4SM -SHRA BR OVC015
     FM281400 09007KT P6SM -SHRA OVC020=



Latest METAR

428
SAUS70 KWBC 280200 RRA
MTRGNV
METAR KGNV 280153Z 18004KT 9SM CLR 20/19 A2986 RMK AO2 RAE52 SLP108
P0001 T02000194


USA.gov is the U.S. government's official web portal to all federal, state and local government web resources and services.